Time;durP1;ratioP1;P1;durP2;ratioP2;P2;SDS_P1;SDS_P2;PMS_P1;PMS_P2;Temp;Humidity;BMP_temperature;BMP_pressure;BME280_temperature;BME280_humidity;BME280_pressure;Samples;Min_cycle;Max_cycle;Signal;HPM_P1;HPM_P2
2021/11/12 00:03:01;;;;;;;58.28;24.38;;;;;;;5.57;100.00;96878.25;5012085;28;20069;-59
2021/11/12 00:14:03;;;;;;;64.05;22.48;;;;;;;5.22;100.00;96870.97;4964623;28;20058;-59
2021/11/12 00:16:33;;;;;;;74.50;22.05;;;;;;;5.27;100.00;96871.53;4996477;28;20606;-57
2021/11/12 00:19:01;;;;;;;76.72;22.90;;;;;;;5.40;100.00;96869.78;4996129;28;20083;-59
2021/11/12 00:21:30;;;;;;;79.90;23.25;;;;;;;5.19;100.00;96866.78;5013280;28;20065;-59
2021/11/12 00:23:58;;;;;;;63.17;21.73;;;;;;;4.88;100.00;96867.97;5014496;28;20069;-58
2021/11/12 00:26:27;;;;;;;68.03;22.85;;;;;;;5.36;100.00;96859.59;5010715;28;20533;-59
2021/11/12 00:29:00;;;;;;;65.43;22.10;;;;;;;6.03;100.00;96851.59;5027744;28;20053;-58
2021/11/12 00:31:34;;;;;;;44.20;23.00;;;;;;;6.09;100.00;96853.75;5013253;28;20088;-58
2021/11/12 00:34:28;;;;;;;52.78;21.95;;;;;;;5.24;100.00;96850.81;5013564;28;20146;-56
2021/11/12 00:37:03;;;;;;;48.58;21.70;;;;;;;5.07;100.00;96856.31;4989615;28;20137;-58
2021/11/12 00:39:37;;;;;;;54.05;19.92;;;;;;;4.75;100.00;96854.88;5002994;28;20072;-60
2021/11/12 00:42:11;;;;;;;70.05;22.13;;;;;;;5.29;100.00;96861.78;5010829;28;20057;-59
2021/11/12 00:44:43;;;;;;;53.65;21.67;;;;;;;5.21;100.00;96854.47;5008840;28;20099;-60
2021/11/12 00:47:21;;;;;;;68.97;21.73;;;;;;;5.63;100.00;96846.44;5022906;28;20068;-57
2021/11/12 00:50:07;;;;;;;78.68;22.90;;;;;;;5.78;100.00;96852.41;5015344;28;20105;-56
2021/11/12 00:52:43;;;;;;;53.95;20.75;;;;;;;6.18;100.00;96840.03;5018654;28;20101;-60
2021/11/12 00:55:12;;;;;;;71.88;24.45;;;;;;;6.22;100.00;96845.91;5017976;28;20478;-60
2021/11/12 00:57:40;;;;;;;114.03;24.63;;;;;;;6.09;100.00;96843.28;5012902;28;20412;-59
2021/11/12 01:00:12;;;;;;;80.50;23.92;;;;;;;6.04;100.00;96843.63;5015482;28;20065;-58
2021/11/12 01:02:41;;;;;;;85.47;23.92;;;;;;;5.86;100.00;96843.09;5014517;28;20034;-59
2021/11/12 01:05:12;;;;;;;53.25;22.60;;;;;;;6.12;100.00;96848.31;5014241;28;20053;-60
2021/11/12 01:07:41;;;;;;;61.60;22.55;;;;;;;5.97;100.00;96852.84;5012492;28;20061;-59
2021/11/12 01:10:14;;;;;;;71.97;23.88;;;;;;;5.47;100.00;96849.25;5012926;28;20455;-60
2021/11/12 01:12:43;;;;;;;71.53;23.35;;;;;;;5.79;100.00;96844.47;5014290;28;20064;-57
2021/11/12 01:15:15;;;;;;;78.13;24.13;;;;;;;5.54;100.00;96845.31;5011852;28;20072;-61
2021/11/12 01:17:44;;;;;;;58.30;23.58;;;;;;;5.62;100.00;96845.63;5016431;28;20065;-57
2021/11/12 01:20:16;;;;;;;71.65;24.23;;;;;;;6.49;100.00;96851.78;5017228;28;20068;-58
2021/11/12 01:22:48;;;;;;;60.58;24.23;;;;;;;6.08;100.00;96836.41;5018450;28;20072;-61
2021/11/12 01:25:20;;;;;;;77.53;25.83;;;;;;;5.89;100.00;96842.88;5016445;28;20076;-61
2021/11/12 01:27:49;;;;;;;80.22;26.33;;;;;;;6.17;100.00;96839.22;5012465;28;20077;-60
2021/11/12 01:30:18;;;;;;;72.28;24.05;;;;;;;5.96;100.00;96832.88;5022431;28;20061;-57
2021/11/12 01:32:47;;;;;;;106.60;24.90;;;;;;;6.05;100.00;96836.59;5019451;28;20084;-59
2021/11/12 01:35:19;;;;;;;97.03;23.52;;;;;;;6.25;100.00;96836.03;5010723;28;20053;-59
2021/11/12 01:37:47;;;;;;;68.40;23.92;;;;;;;5.93;100.00;96836.53;5008546;28;20110;-61
2021/11/12 01:40:21;;;;;;;58.42;23.58;;;;;;;6.18;100.00;96837.41;5021073;28;20139;-58
2021/11/12 01:43:06;;;;;;;50.53;23.88;;;;;;;6.09;100.00;96835.44;5010088;28;20080;-60
2021/11/12 01:51:24;;;;;;;47.35;21.42;;;;;;;5.04;100.00;96836.44;5008715;28;20054;-57
2021/11/12 01:53:57;;;;;;;65.50;22.48;;;;;;;4.88;100.00;96836.59;5016504;28;20115;-60
2021/11/12 01:56:37;;;;;;;65.38;22.40;;;;;;;4.87;100.00;96834.09;5020310;28;20084;-60
2021/11/12 01:59:09;;;;;;;48.90;19.15;;;;;;;4.81;100.00;96837.13;5019681;28;20448;-58
2021/11/12 02:01:43;;;;;;;40.60;20.42;;;;;;;5.38;100.00;96827.19;5010001;28;20476;-58
2021/11/12 02:04:13;;;;;;;44.80;21.48;;;;;;;4.78;100.00;96827.69;5010667;28;20547;-58
2021/11/12 02:06:44;;;;;;;37.10;19.50;;;;;;;4.78;100.00;96832.91;5012421;28;20049;-60
2021/11/12 02:09:15;;;;;;;;;;;;;;;5.18;100.00;96818.06;5032214;28;20072;-60
2021/11/12 02:11:44;;;;;;;;;;;;;;;5.71;100.00;96821.44;5015676;28;19975;-59
2021/11/12 02:14:14;;;;;;;46.85;18.80;;;;;;;5.68;100.00;96815.59;5018815;28;19959;-58
2021/11/12 02:16:47;;;;;;;38.80;19.30;;;;;;;5.25;100.00;96810.66;5029735;28;20060;-60
2021/11/12 02:19:16;;;;;;;69.32;20.45;;;;;;;5.99;100.00;96806.47;5018052;28;20053;-60
2021/11/12 02:21:50;;;;;;;51.40;20.15;;;;;;;5.97;100.00;96808.34;5016289;28;20061;-60
2021/11/12 02:24:19;;;;;;;46.45;20.83;;;;;;;5.74;100.00;96799.44;5018065;28;20065;-57
2021/11/12 02:26:55;;;;;;;56.60;20.80;;;;;;;5.57;100.00;96795.38;5012550;28;20069;-59
2021/11/12 02:29:26;;;;;;;44.67;20.17;;;;;;;5.38;100.00;96794.97;5012138;28;20058;-59
2021/11/12 02:31:55;;;;;;;74.85;21.00;;;;;;;5.34;100.00;96791.75;5021467;28;20058;-59
2021/11/12 02:34:24;;;;;;;48.10;19.42;;;;;;;5.26;100.00;96793.19;5021484;28;20546;-55
2021/11/12 02:36:55;;;;;;;50.08;19.33;;;;;;;5.02;100.00;96785.22;5016403;28;20146;-60
2021/11/12 02:39:24;;;;;;;69.63;21.08;;;;;;;5.31;100.00;96789.31;5010596;28;20065;-60
2021/11/12 02:41:52;;;;;;;51.00;18.95;;;;;;;4.87;100.00;96789.69;5016563;28;20565;-60
2021/11/12 02:44:23;;;;;;;44.42;20.38;;;;;;;4.92;100.00;96783.22;5017601;28;20071;-60
2021/11/12 02:46:52;;;;;;;;;;;;;;;4.92;100.00;96775.38;5025201;28;20458;-60
2021/11/12 02:49:20;;;;;;;41.75;17.73;;;;;;;4.79;100.00;96761.47;5015436;28;19949;-57
2021/11/12 02:51:49;;;;;;;42.75;19.15;;;;;;;4.61;100.00;96770.47;5016223;28;20041;-60
2021/11/12 02:54:19;;;;;;;54.70;18.25;;;;;;;4.82;100.00;96774.31;5032611;28;20038;-60
2021/11/12 02:56:50;;;;;;;65.10;18.70;;;;;;;4.91;100.00;96765.84;5012690;28;20081;-61
2021/11/12 02:59:19;;;;;;;83.57;19.27;;;;;;;5.23;100.00;96773.34;5019310;28;20073;-61
2021/11/12 03:01:48;;;;;;;60.30;18.75;;;;;;;5.33;100.00;96774.34;5011756;28;20093;-61
2021/11/12 03:04:18;;;;;;;41.60;18.15;;;;;;;5.07;100.00;96762.22;5014683;28;20095;-58
2021/11/12 03:06:47;;;;;;;50.33;19.45;;;;;;;5.07;100.00;96764.84;5017865;28;20069;-56
2021/11/12 03:09:16;;;;;;;65.00;18.97;;;;;;;5.73;100.00;96766.38;5013645;28;20073;-59
2021/11/12 03:11:46;;;;;;;43.53;18.17;;;;;;;5.31;100.00;96771.03;5021796;28;20077;-58
2021/11/12 03:14:15;;;;;;;51.55;18.40;;;;;;;5.13;100.00;96770.50;5010765;28;20058;-60
2021/11/12 03:16:44;;;;;;;82.50;19.00;;;;;;;5.14;100.00;96766.09;5011231;28;20083;-60
2021/11/12 03:19:13;;;;;;;53.03;16.40;;;;;;;4.83;100.00;96770.75;5016768;28;20471;-59
2021/11/12 03:21:42;;;;;;;72.53;18.27;;;;;;;4.96;100.00;96765.56;5015441;28;20069;-60
2021/11/12 03:24:17;;;;;;;47.13;16.92;;;;;;;4.53;100.00;96765.75;5014128;28;20073;-59
2021/11/12 03:26:53;;;;;;;40.63;16.02;;;;;;;4.46;100.00;96772.31;5011385;28;21020;-58
2021/11/12 03:29:50;;;;;;;57.95;15.43;;;;;;;4.18;100.00;96778.47;5011939;28;20066;-60
2021/11/12 04:00:15;;;;;;;50.75;15.75;;;;;;;4.87;100.00;96755.72;5012843;28;20081;-60
2021/11/12 04:19:39;;;;;;;47.58;15.25;;;;;;;4.55;100.00;96752.63;5011352;28;20053;-58
2021/11/12 04:31:15;;;;;;;38.30;14.20;;;;;;;4.51;100.00;96745.00;5009852;28;20061;-59
2021/11/12 05:51:32;;;;;;;38.92;13.88;;;;;;;5.62;100.00;96748.00;5010438;28;20169;-60
2021/11/12 05:56:49;;;;;;;24.20;13.13;;;;;;;5.73;100.00;96742.84;5001368;28;20065;-60
2021/11/12 05:59:18;;;;;;;25.38;13.70;;;;;;;5.73;100.00;96745.44;4997071;28;21560;-60
2021/11/12 06:01:48;;;;;;;28.60;13.45;;;;;;;6.13;100.00;96746.13;4994046;28;20563;-59
2021/11/12 06:04:16;;;;;;;36.23;14.80;;;;;;;6.17;100.00;96750.19;5019226;28;20100;-58
2021/11/12 06:06:45;;;;;;;42.30;14.65;;;;;;;5.67;100.00;96740.63;4994627;28;20473;-60
2021/11/12 06:09:13;;;;;;;33.85;13.45;;;;;;;6.08;100.00;96736.91;5011500;28;20479;-59
2021/11/12 06:11:42;;;;;;;39.65;13.27;;;;;;;5.96;100.00;96745.66;5009120;28;20098;-54
2021/11/12 06:14:12;;;;;;;26.63;13.75;;;;;;;5.98;100.00;96738.50;5000404;28;20077;-55
2021/11/12 06:16:41;;;;;;;29.70;15.05;;;;;;;6.28;100.00;96738.09;5014784;28;20086;-59
2021/11/12 06:19:09;;;;;;;46.80;14.02;;;;;;;5.60;100.00;96742.84;4999920;28;20504;-55
2021/11/12 06:21:37;;;;;;;24.48;13.32;;;;;;;5.07;100.00;96744.75;5013689;28;20068;-57
2021/11/12 06:24:06;;;;;;;28.50;13.68;;;;;;;4.91;100.00;96746.72;5015999;28;20076;-60
2021/11/12 06:26:34;;;;;;;24.50;13.52;;;;;;;5.48;100.00;96744.53;5014095;28;20089;-61
2021/11/12 06:29:03;;;;;;;28.92;13.07;;;;;;;4.95;100.00;96742.97;5021299;28;20073;-59
2021/11/12 06:31:33;;;;;;;33.60;13.57;;;;;;;5.06;100.00;96742.25;5030075;28;20120;-61
2021/11/12 06:34:02;;;;;;;35.17;13.75;;;;;;;5.46;100.00;96733.34;5013670;28;20081;-56
2021/11/12 06:36:31;;;;;;;41.08;14.57;;;;;;;5.39;100.00;96736.50;5016111;28;20088;-59
2021/11/12 06:39:00;;;;;;;22.60;13.13;;;;;;;5.87;100.00;96737.47;5008919;28;20078;-60
2021/11/12 06:41:40;;;;;;;25.40;13.02;;;;;;;6.00;100.00;96734.00;5013281;28;20065;-59
2021/11/12 06:49:52;;;;;;;34.22;14.85;;;;;;;6.09;100.00;96741.19;5012496;28;20088;-60
2021/11/12 06:52:22;;;;;;;47.40;16.08;;;;;;;6.24;100.00;96734.88;5017394;28;20085;-58
2021/11/12 06:54:52;;;;;;;45.50;16.07;;;;;;;6.09;100.00;96735.94;5018511;28;20061;-59
2021/11/12 06:57:21;;;;;;;35.08;14.57;;;;;;;6.15;100.00;96719.81;5015609;28;20058;-57
2021/11/12 06:59:50;;;;;;;34.35;15.38;;;;;;;6.26;100.00;96727.72;5012999;28;20465;-59
2021/11/12 07:02:22;;;;;;;53.97;16.00;;;;;;;6.18;100.00;96730.06;5015910;28;20069;-59
2021/11/12 07:04:51;;;;;;;42.35;15.48;;;;;;;6.25;100.00;96730.47;5011935;28;20099;-60
2021/11/12 07:07:20;;;;;;;47.72;15.75;;;;;;;5.67;100.00;96724.94;5015471;28;20073;-59
2021/11/12 07:09:50;;;;;;;29.77;15.63;;;;;;;5.47;100.00;96735.03;5017450;28;20072;-58
2021/11/12 07:12:19;;;;;;;65.32;17.48;;;;;;;5.28;100.00;96739.03;5021543;28;20069;-59
2021/11/12 07:14:48;;;;;;;36.50;16.67;;;;;;;5.43;100.00;96744.00;5020086;28;20061;-60
2021/11/12 07:17:16;;;;;;;50.42;16.40;;;;;;;5.69;100.00;96736.97;5008856;28;20532;-59
2021/11/12 07:19:47;;;;;;;51.20;17.50;;;;;;;5.81;100.00;96740.50;5009186;28;20054;-57
2021/11/12 07:22:15;;;;;;;31.63;16.63;;;;;;;6.06;100.00;96730.97;5011431;28;20481;-57
2021/11/12 07:24:44;;;;;;;29.92;16.27;;;;;;;5.84;100.00;96731.59;5008655;28;20164;-60
2021/11/12 07:27:13;;;;;;;43.05;16.42;;;;;;;5.82;100.00;96738.75;5044542;28;20080;-60
2021/11/12 07:30:04;;;;;;;77.32;17.92;;;;;;;6.05;100.00;96744.97;5009002;28;20093;-59
2021/11/12 07:32:32;;;;;;;50.38;16.55;;;;;;;6.07;100.00;96727.38;5008763;28;20064;-57
2021/11/12 07:35:02;;;;;;;66.15;17.33;;;;;;;6.04;100.00;96733.69;5009057;28;20571;-59
2021/11/12 07:37:32;;;;;;;88.10;18.00;;;;;;;6.05;100.00;96730.09;5011057;28;20084;-58
2021/11/12 07:40:04;;;;;;;54.90;16.57;;;;;;;6.15;100.00;96723.25;5024086;28;20072;-60
2021/11/12 07:42:39;;;;;;;68.13;17.75;;;;;;;6.27;100.00;96718.94;5028604;28;20479;-60
2021/11/12 07:45:19;;;;;;;51.72;17.13;;;;;;;6.06;100.00;96710.84;5015766;28;20077;-58
2021/11/12 07:47:48;;;;;;;41.97;17.38;;;;;;;6.14;100.00;96708.50;5008952;28;20416;-60
2021/11/12 07:50:18;;;;;;;66.85;18.02;;;;;;;6.78;100.00;96712.56;5008502;28;20094;-58
2021/11/12 07:52:46;;;;;;;51.72;16.33;;;;;;;5.73;100.00;96716.66;5008176;28;20089;-60
2021/11/12 07:55:15;;;;;;;66.47;15.77;;;;;;;5.77;100.00;96725.13;5011083;28;20073;-60
2021/11/12 07:57:43;;;;;;;55.25;15.98;;;;;;;6.10;100.00;96722.78;5008656;28;20074;-58
2021/11/12 08:00:12;;;;;;;40.47;15.88;;;;;;;5.96;100.00;96715.06;5008389;28;20073;-58
2021/11/12 08:02:41;;;;;;;41.38;16.85;;;;;;;6.27;100.00;96718.09;5007538;28;20065;-58
2021/11/12 08:05:16;;;;;;;45.88;17.42;;;;;;;6.20;100.00;96722.94;5009697;28;20077;-57
2021/11/12 08:07:46;;;;;;;57.30;16.65;;;;;;;6.32;100.00;96716.78;5028003;28;20084;-60
2021/11/12 08:10:19;;;;;;;55.95;15.75;;;;;;;6.20;100.00;96728.19;5021364;28;20086;-60
2021/11/12 08:12:57;;;;;;;34.78;15.25;;;;;;;6.19;100.00;96726.50;5007925;28;20088;-58
2021/11/12 08:15:40;;;;;;;43.10;15.95;;;;;;;6.17;100.00;96731.84;5018570;28;20076;-60
2021/11/12 08:18:21;;;;;;;41.13;15.80;;;;;;;6.47;100.00;96727.97;5027975;28;20069;-61
2021/11/12 08:20:56;;;;;;;43.28;14.02;;;;;;;5.81;100.00;96730.03;5027294;28;20065;-60
2021/11/12 08:23:51;;;;;;;36.67;15.23;;;;;;;6.14;100.00;96721.59;5025091;28;20069;-60
2021/11/12 08:26:27;;;;;;;36.42;15.30;;;;;;;6.30;100.00;96712.63;5013591;28;20100;-59
2021/11/12 08:31:51;;;;;;;50.88;14.18;;;;;;;6.58;100.00;96708.81;4978069;28;20085;-58
2021/11/12 08:34:23;;;;;;;30.25;14.25;;;;;;;6.56;100.00;96700.22;5010274;28;20460;-60
2021/11/12 08:37:01;;;;;;;42.90;14.93;;;;;;;6.94;100.00;96704.38;4988907;28;20073;-60
2021/11/12 08:39:49;;;;;;;39.35;15.25;;;;;;;6.74;100.00;96711.13;5017996;28;20068;-61
2021/11/12 08:42:21;;;;;;;31.27;13.18;;;;;;;7.23;100.00;96689.91;4992610;28;20081;-56
2021/11/12 08:44:52;;;;;;;34.03;13.52;;;;;;;6.77;100.00;96693.38;5015034;28;20101;-59
2021/11/12 08:47:25;;;;;;;29.33;13.80;;;;;;;6.69;100.00;96698.38;5013504;28;20037;-59
2021/11/12 08:49:54;;;;;;;41.80;14.50;;;;;;;6.73;100.00;96697.19;5025793;28;20057;-61
2021/11/12 08:52:24;;;;;;;52.40;14.50;;;;;;;6.80;100.00;96695.78;5029516;28;20774;-59
2021/11/12 08:54:54;;;;;;;59.73;14.83;;;;;;;6.90;100.00;96691.50;5026777;28;20064;-58
2021/11/12 08:57:23;;;;;;;28.25;13.90;;;;;;;6.49;100.00;96689.38;5027056;28;20579;-60
2021/11/12 08:59:53;;;;;;;41.03;14.77;;;;;;;6.79;100.00;96688.88;5025815;28;20782;-58
2021/11/12 09:02:25;;;;;;;32.97;15.15;;;;;;;7.53;100.00;96678.78;5026578;28;20534;-58
2021/11/12 09:04:55;;;;;;;38.00;15.38;;;;;;;7.30;100.00;96677.97;5026571;28;20049;-58
2021/11/12 09:07:45;;;;;;;28.40;14.70;;;;;;;7.24;100.00;96675.81;5026541;28;20486;-58
2021/11/12 09:10:16;;;;;;;40.47;14.70;;;;;;;7.53;100.00;96672.69;5024295;28;20088;-59
2021/11/12 09:12:45;;;;;;;22.55;13.48;;;;;;;6.84;100.00;96671.00;5022250;28;20076;-58
2021/11/12 09:15:23;;;;;;;32.03;13.82;;;;;;;6.27;100.00;96670.97;5014405;28;20065;-58
2021/11/12 09:17:52;;;;;;;28.98;14.25;;;;;;;6.80;100.00;96673.97;5011770;28;20077;-56
2021/11/12 09:20:23;;;;;;;36.03;14.90;;;;;;;6.88;100.00;96667.22;5024604;28;20089;-59
2021/11/12 09:22:53;;;;;;;29.30;14.98;;;;;;;6.83;100.00;96668.50;5046352;28;23023;-60
2021/11/12 09:25:23;;;;;;;35.03;15.23;;;;;;;7.01;100.00;96664.47;5042311;28;20065;-58
2021/11/12 09:27:53;;;;;;;31.63;13.65;;;;;;;6.78;100.00;96673.25;5027137;28;20084;-61
2021/11/12 09:30:23;;;;;;;30.20;14.23;;;;;;;7.16;100.00;96662.47;5021990;28;20066;-61
2021/11/12 09:32:52;;;;;;;;;;;;;;;6.83;100.00;96656.22;5018463;28;20061;-59
2021/11/12 09:35:21;;;;;;;27.98;13.05;;;;;;;6.86;100.00;96655.16;5025207;28;19979;-61
2021/11/12 09:37:50;;;;;;;26.58;14.95;;;;;;;7.55;100.00;96655.06;5023549;28;20089;-60
2021/11/12 09:40:20;;;;;;;29.05;14.82;;;;;;;7.58;100.00;96655.66;5014080;28;20451;-62
2021/11/12 09:42:51;;;;;;;31.20;13.90;;;;;;;7.31;100.00;96655.19;5026153;28;20596;-61
2021/11/12 09:45:21;;;;;;;30.42;14.90;;;;;;;7.65;100.00;96658.63;5026468;28;20053;-60
2021/11/12 09:47:52;;;;;;;36.20;15.18;;;;;;;7.77;100.00;96643.69;5025666;28;20105;-59
2021/11/12 09:50:24;;;;;;;50.38;15.73;;;;;;;7.90;100.00;96643.53;5026347;28;20049;-61
2021/11/12 09:52:54;;;;;;;27.27;14.43;;;;;;;7.88;100.00;96635.81;5026575;28;20069;-58
2021/11/12 09:55:23;;;;;;;31.63;14.73;;;;;;;7.61;100.00;96637.03;5027608;28;20077;-59
2021/11/12 09:57:54;;;;;;;27.70;14.52;;;;;;;7.28;100.00;96637.91;5027205;28;20073;-59
2021/11/12 10:00:23;;;;;;;;;;;;;;;7.06;100.00;96638.75;5026285;28;20452;-61
2021/11/12 10:02:52;;;;;;;37.30;15.40;;;;;;;7.94;100.00;96629.19;5021099;28;19963;-60
2021/11/12 10:05:38;;;;;;;35.63;14.68;;;;;;;7.78;100.00;96622.56;5018296;28;20061;-60
2021/11/12 10:08:25;;;;;;;56.83;14.00;;;;;;;8.18;100.00;96614.06;5011494;28;20068;-58
2021/11/12 10:10:56;;;;;;;33.15;14.25;;;;;;;7.45;100.00;96628.72;5025823;28;20072;-61
2021/11/12 10:13:29;;;;;;;31.45;13.05;;;;;;;7.40;100.00;96627.38;5028775;28;20092;-59
2021/11/12 10:19:19;;;;;;;42.30;14.75;;;;;;;7.72;100.00;96619.59;4996037;28;20066;-59
2021/11/12 10:21:50;;;;;;;29.75;14.02;;;;;;;7.82;100.00;96613.50;4960164;28;20101;-60
2021/11/12 10:24:22;;;;;;;40.50;14.18;;;;;;;7.75;100.00;96619.38;5013251;28;20079;-60
2021/11/12 10:26:53;;;;;;;35.80;14.70;;;;;;;7.41;100.00;96626.47;5028521;28;20115;-60
2021/11/12 10:29:25;;;;;;;36.20;14.68;;;;;;;7.71;100.00;96617.91;5028685;28;20115;-59
2021/11/12 10:31:57;;;;;;;26.83;13.98;;;;;;;7.65;100.00;96608.75;5029027;28;20535;-60
2021/11/12 10:34:28;;;;;;;36.53;14.38;;;;;;;8.03;100.00;96607.44;5014984;28;20081;-61
2021/11/12 10:37:00;;;;;;;42.92;15.45;;;;;;;8.45;100.00;96603.09;5009329;28;20516;-61
2021/11/12 10:39:38;;;;;;;30.92;14.63;;;;;;;8.14;100.00;96601.31;5026563;28;20077;-62
2021/11/12 10:42:08;;;;;;;31.83;13.30;;;;;;;8.17;100.00;96595.81;5022112;28;20058;-61
2021/11/12 10:44:43;;;;;;;22.98;13.02;;;;;;;7.87;100.00;96594.72;5009588;28;20057;-61
2021/11/12 10:47:13;;;;;;;31.25;12.63;;;;;;;7.48;100.00;96604.84;5010081;28;20096;-59
2021/11/12 10:49:42;;;;;;;21.92;13.20;;;;;;;8.00;100.00;96591.94;5009839;28;20054;-60
2021/11/12 10:52:13;;;;;;;24.15;12.27;;;;;;;7.54;100.00;96596.50;5011821;28;20069;-60
2021/11/12 10:54:49;;;;;;;25.10;13.50;;;;;;;8.00;100.00;96584.91;5007211;28;20064;-60
2021/11/12 10:57:18;;;;;;;32.58;13.65;;;;;;;7.72;100.00;96581.06;5004638;28;20066;-59
2021/11/12 11:00:05;;;;;;;20.63;13.35;;;;;;;8.21;100.00;96574.41;5014442;28;20072;-55
2021/11/12 11:02:39;;;;;;;28.77;13.38;;;;;;;8.06;100.00;96565.19;5010413;28;20065;-60
2021/11/12 11:05:10;;;;;;;27.73;13.27;;;;;;;8.26;100.00;96566.16;5009670;28;20069;-60
2021/11/12 11:07:40;;;;;;;33.50;14.38;;;;;;;7.87;100.00;96565.84;5009468;28;20092;-57
2021/11/12 11:10:31;;;;;;;32.25;13.85;;;;;;;8.23;100.00;96564.63;5015571;28;20464;-60
2021/11/12 11:13:08;;;;;;;35.30;14.73;;;;;;;8.29;100.00;96564.13;5041294;28;20316;-60
2021/11/12 11:15:39;;;;;;;50.53;21.38;;;;;;;8.08;100.00;96563.25;5045809;28;20069;-60
2021/11/12 11:18:23;;;;;;;36.92;15.93;;;;;;;8.42;100.00;96566.56;5009344;28;20089;-59
2021/11/12 11:21:02;;;;;;;24.80;12.32;;;;;;;7.96;100.00;96564.28;5008977;28;20061;-59
2021/11/12 11:23:44;;;;;;;26.83;13.48;;;;;;;7.19;100.00;96559.97;5008780;28;20054;-56
2021/11/12 11:26:14;;;;;;;39.30;13.43;;;;;;;8.30;100.00;96560.53;5009007;28;20073;-60
2021/11/12 11:28:44;;;;;;;33.67;13.60;;;;;;;8.14;100.00;96560.13;5009045;28;20089;-58
2021/11/12 11:31:15;;;;;;;30.67;12.07;;;;;;;7.68;100.00;96550.78;5011531;28;20453;-61
2021/11/12 11:33:46;;;;;;;29.38;13.05;;;;;;;7.50;100.00;96553.09;5008623;28;20080;-61
2021/11/12 11:36:16;;;;;;;;;;;;;;;7.81;100.00;96548.81;5009448;28;20069;-58
2021/11/12 11:38:45;;;;;;;42.45;13.02;;;;;;;8.18;100.00;96548.41;5019040;28;19960;-59
2021/11/12 11:41:16;;;;;;;39.17;14.52;;;;;;;8.42;100.00;96545.53;5028180;28;20069;-61
2021/11/12 11:43:44;;;;;;;;;;;;;;;8.18;100.00;96545.75;5028870;28;20133;-60
2021/11/12 11:46:17;;;;;;;23.92;14.30;;;;;;;7.92;100.00;96541.84;5030705;28;19951;-57
2021/11/12 11:48:46;;;;;;;42.28;13.57;;;;;;;8.16;100.00;96539.81;5027959;28;20080;-62
2021/11/12 11:51:20;;;;;;;22.52;14.38;;;;;;;8.12;100.00;96538.41;5028431;28;20520;-61
2021/11/12 11:53:49;;;;;;;29.40;20.23;;;;;;;7.76;100.00;96534.41;5027451;28;20111;-56
2021/11/12 11:56:23;;;;;;;31.42;19.20;;;;;;;7.36;100.00;96535.84;5009949;28;20068;-61
2021/11/12 11:58:52;;;;;;;34.67;21.60;;;;;;;7.21;100.00;96521.31;5008799;28;20153;-59
2021/11/12 12:01:36;;;;;;;159.90;95.80;;;;;;;7.33;100.00;96525.59;5010559;28;20547;-59
2021/11/12 12:04:35;;;;;;;119.07;69.45;;;;;;;7.05;100.00;96526.94;5007359;28;21399;-59
2021/11/12 12:07:28;;;;;;;28.15;14.65;;;;;;;8.25;100.00;96533.78;5006795;28;20065;-59
2021/11/12 12:10:02;;;;;;;31.83;15.18;;;;;;;8.06;100.00;96531.88;5027925;28;20527;-61
2021/11/12 12:12:48;;;;;;;41.58;18.98;;;;;;;8.12;100.00;96530.53;4999201;28;20074;-55
2021/11/12 12:15:42;;;;;;;35.05;14.32;;;;;;;7.79;100.00;96519.22;4974098;28;20074;-53
2021/11/12 12:18:21;;;;;;;26.65;13.45;;;;;;;7.64;100.00;96517.88;4968728;28;20085;-59
2021/11/12 12:35:55;;;;;;;39.25;16.95;;;;;;;8.00;100.00;96500.03;4955084;28;20062;-58
2021/11/12 13:20:48;;;;;;;54.35;15.07;;;;;;;7.90;100.00;96473.69;4946558;28;20199;-55
2021/11/12 13:23:33;;;;;;;41.40;14.68;;;;;;;7.76;100.00;96477.47;4979194;28;20085;-61
2021/11/12 13:26:05;;;;;;;32.35;14.40;;;;;;;8.10;100.00;96466.78;4987895;28;20081;-58
2021/11/12 13:28:35;;;;;;;27.85;14.30;;;;;;;7.40;100.00;96472.59;4987461;28;20097;-59
2021/11/12 13:31:05;;;;;;;26.17;13.70;;;;;;;7.38;100.00;96478.00;4990215;28;20089;-60
2021/11/12 13:33:44;;;;;;;25.17;13.85;;;;;;;7.69;100.00;96473.69;4987301;28;20090;-60
2021/11/12 13:36:21;;;;;;;41.15;13.10;;;;;;;7.32;100.00;96454.88;4987010;28;20062;-60
2021/11/12 13:38:54;;;;;;;32.30;13.75;;;;;;;7.53;100.00;96462.78;4998405;28;20065;-58
2021/11/12 13:41:26;;;;;;;22.23;13.30;;;;;;;8.02;100.00;96449.06;5006405;28;20069;-59
2021/11/12 13:44:00;;;;;;;28.90;14.68;;;;;;;8.53;100.00;96445.63;5004243;28;20066;-58
2021/11/12 13:46:29;;;;;;;38.40;14.05;;;;;;;8.62;100.00;96445.78;4989324;28;20089;-60
2021/11/12 13:48:57;;;;;;;27.15;13.13;;;;;;;8.26;100.00;96445.31;4986054;28;20511;-59
2021/11/12 13:51:29;;;;;;;20.83;12.82;;;;;;;8.21;100.00;96448.31;4987568;28;20081;-59
2021/11/12 13:53:59;;;;;;;27.08;13.45;;;;;;;7.79;100.00;96447.53;4978502;28;20085;-57
2021/11/12 13:56:29;;;;;;;23.02;13.75;;;;;;;7.96;100.00;96452.19;4980247;28;20066;-58
2021/11/12 13:59:08;;;;;;;26.42;13.73;;;;;;;8.28;100.00;96451.25;4970454;28;20413;-61
2021/11/12 14:01:37;;;;;;;27.42;14.48;;;;;;;7.82;100.00;96457.78;4987664;28;20101;-57
2021/11/12 14:04:24;;;;;;;22.67;13.52;;;;;;;7.91;100.00;96459.59;4973606;28;20089;-58
2021/11/12 14:06:55;;;;;;;26.67;13.88;;;;;;;7.91;100.00;96454.34;4992876;28;20705;-58
2021/11/12 14:09:25;;;;;;;29.40;14.63;;;;;;;8.02;100.00;96456.09;5010202;28;20092;-60
2021/11/12 14:12:12;;;;;;;30.30;13.60;;;;;;;7.71;100.00;96456.03;5010452;28;20119;-58
2021/11/12 14:14:43;;;;;;;26.80;13.95;;;;;;;8.05;100.00;96446.19;5008650;28;20069;-58
2021/11/12 14:17:19;;;;;;;33.17;16.73;;;;;;;7.51;100.00;96444.56;5010182;28;20082;-59
2021/11/12 14:20:08;;;;;;;44.78;12.82;;;;;;;7.43;100.00;96454.81;5010144;28;20073;-56
2021/11/12 14:22:45;;;;;;;28.77;13.60;;;;;;;7.46;100.00;96444.09;5009767;28;20080;-60
2021/11/12 14:25:32;;;;;;;27.67;13.35;;;;;;;7.84;100.00;96443.56;5012822;28;20081;-60
2021/11/12 14:28:15;;;;;;;25.02;14.15;;;;;;;8.03;100.00;96445.47;4990004;28;21319;-58
2021/11/12 14:33:45;;;;;;;36.70;21.40;;;;;;;8.47;100.00;96429.53;4982014;28;20084;-56
2021/11/12 14:39:16;;;;;;;29.83;14.23;;;;;;;8.26;100.00;96429.56;4995588;28;20078;-59
2021/11/12 14:42:08;;;;;;;29.73;15.23;;;;;;;8.00;100.00;96429.97;5007889;28;20528;-58
2021/11/12 14:45:03;;;;;;;51.83;30.58;;;;;;;8.49;100.00;96420.53;5007048;28;20062;-60
2021/11/12 14:47:42;;;;;;;34.67;16.08;;;;;;;8.70;100.00;96424.91;5009656;28;20518;-53
2021/11/12 14:50:25;;;;;;;25.20;14.52;;;;;;;8.41;100.00;96432.69;5009538;28;20091;-58
2021/11/12 14:53:15;;;;;;;40.00;16.38;;;;;;;9.01;100.00;96428.28;5009317;28;20081;-58
2021/11/12 14:55:45;;;;;;;38.15;14.57;;;;;;;8.66;100.00;96428.78;5015656;28;20045;-60
2021/11/12 14:58:15;;;;;;;26.27;15.93;;;;;;;8.80;100.00;96417.88;5030101;28;20089;-59
2021/11/12 15:00:50;;;;;;;28.95;15.73;;;;;;;8.69;100.00;96413.56;5029271;28;20065;-55
2021/11/12 15:03:20;;;;;;;28.80;14.60;;;;;;;8.25;100.00;96415.56;5006625;28;20081;-55
2021/11/12 15:05:48;;;;;;;25.95;14.20;;;;;;;8.12;100.00;96419.38;4988699;28;20066;-58
2021/11/12 15:08:20;;;;;;;40.92;14.88;;;;;;;8.69;100.00;96416.19;4989680;28;20081;-61
2021/11/12 15:10:50;;;;;;;38.22;15.55;;;;;;;8.68;100.00;96411.91;4989730;28;20101;-59
2021/11/12 15:13:19;;;;;;;34.83;14.60;;;;;;;8.53;100.00;96410.59;4991739;28;20461;-60
2021/11/12 15:15:48;;;;;;;24.58;12.93;;;;;;;8.64;100.00;96407.88;4989387;28;20066;-60
2021/11/12 15:18:18;;;;;;;22.63;12.93;;;;;;;8.66;100.00;96408.56;4989259;28;20110;-60
2021/11/12 15:20:47;;;;;;;26.55;15.50;;;;;;;8.17;100.00;96404.91;4979738;28;20066;-59
2021/11/12 15:23:45;;;;;;;26.50;13.93;;;;;;;7.79;100.00;96408.16;4968576;28;20146;-56
2021/11/12 15:26:36;;;;;;;32.53;13.73;;;;;;;8.12;100.00;96406.25;4975854;28;20069;-57
2021/11/12 15:29:09;;;;;;;26.20;14.98;;;;;;;8.09;100.00;96418.69;4989756;28;20070;-56
2021/11/12 15:31:45;;;;;;;28.83;16.92;;;;;;;8.20;100.00;96409.06;4986860;28;20144;-59